createdAt,value
2023-02-04T00:00:54.473Z,71.32568359
2023-02-04T00:01:56.074Z,71.32568359
2023-02-04T00:02:57.485Z,71.53320313
2023-02-04T00:03:57.852Z,71.875
2023-02-04T00:04:58.408Z,72.08251953
2023-02-04T00:05:59.262Z,72.1862793
2023-02-04T00:06:59.959Z,72.39379883
2023-02-04T00:08:00.675Z,72.49755859
2023-02-04T00:09:01.206Z,72.60131836
2023-02-04T00:10:01.733Z,72.80883789
2023-02-04T00:11:02.446Z,72.84545898
2023-02-04T00:12:34.393Z,72.91259766
2023-02-04T00:13:35.096Z,72.80883789
2023-02-04T00:14:35.650Z,72.80883789
2023-02-04T00:15:36.201Z,72.91259766
2023-02-04T00:16:36.850Z,73.01635742
2023-02-04T00:17:37.563Z,73.01635742
2023-02-04T00:18:39.048Z,73.12011719
2023-02-04T00:19:39.833Z,73.01635742
2023-02-04T00:20:40.672Z,72.80883789
2023-02-04T00:21:42.061Z,72.70507813
2023-02-04T00:22:42.789Z,72.70507813
2023-02-04T00:23:43.570Z,72.57080078
2023-02-04T00:24:44.122Z,72.25952148
2023-02-04T00:25:44.656Z,72.15576172
2023-02-04T00:26:45.252Z,72.15576172
2023-02-04T00:27:46.205Z,72.15576172
2023-02-04T00:28:46.802Z,72.46704102
2023-02-04T00:29:47.479Z,72.57080078
2023-02-04T00:30:48.111Z,72.70507813
2023-02-04T00:31:49.687Z,72.80883789
2023-02-04T00:32:50.124Z,72.80883789
2023-02-04T00:33:50.948Z,72.91259766
2023-02-04T00:34:51.666Z,72.80883789
2023-02-04T00:35:52.369Z,72.77832031
2023-02-04T00:36:53.024Z,72.77832031
2023-02-04T00:37:54.348Z,72.77832031
2023-02-04T00:38:55.300Z,72.77832031
2023-02-04T00:39:55.905Z,72.77832031
2023-02-04T00:40:57.156Z,72.91259766
2023-02-04T00:41:58.558Z,73.12011719
2023-02-04T00:42:59.091Z,73.18725586
2023-02-04T00:43:59.617Z,73.08349609
2023-02-04T00:45:00.411Z,73.08349609
2023-02-04T00:46:01.136Z,72.97973633
2023-02-04T00:47:01.702Z,72.57080078
2023-02-04T00:48:32.933Z,72.15576172
2023-02-04T00:49:33.522Z,71.94824219
2023-02-04T00:50:34.251Z,71.94824219
2023-02-04T00:51:34.900Z,71.94824219
2023-02-04T00:52:36.493Z,72.05200195
2023-02-04T00:53:37.203Z,72.25952148
2023-02-04T00:54:37.895Z,72.46704102
2023-02-04T00:55:38.582Z,72.36328125
2023-02-04T00:56:39.314Z,72.15576172
2023-02-04T00:57:39.958Z,72.15576172
2023-02-04T00:58:40.877Z,72.36328125
2023-02-04T00:59:41.434Z,72.46704102
2023-02-04T01:00:42.010Z,72.67456055
2023-02-04T01:01:42.603Z,72.77832031
2023-02-04T01:02:43.985Z,72.77832031
2023-02-04T01:03:44.757Z,72.77832031
2023-02-04T01:04:45.514Z,72.67456055
2023-02-04T01:05:46.195Z,72.57080078
2023-02-04T01:06:46.950Z,72.46704102
2023-02-04T01:07:47.628Z,72.46704102
2023-02-04T01:08:48.074Z,72.57080078
2023-02-04T01:09:48.816Z,72.57080078
2023-02-04T01:10:49.356Z,72.67456055
2023-02-04T01:11:49.859Z,72.67456055
2023-02-04T01:12:51.390Z,72.57080078
2023-02-04T01:13:52.165Z,72.36328125
2023-02-04T01:14:52.850Z,72.15576172
2023-02-04T01:15:53.481Z,72.15576172
2023-02-04T01:16:54.025Z,72.25952148
2023-02-04T01:17:54.568Z,72.15576172
2023-02-04T01:18:55.054Z,72.25952148
2023-02-04T01:19:55.537Z,72.36328125
2023-02-04T01:20:56.067Z,72.46704102
2023-02-04T01:21:56.576Z,72.46704102
2023-02-04T01:22:57.917Z,72.46704102
2023-02-04T01:23:58.523Z,72.36328125
2023-02-04T01:24:59.073Z,72.46704102
2023-02-04T01:25:59.607Z,72.46704102
2023-02-04T01:27:00.910Z,72.67456055
2023-02-04T01:28:01.442Z,73.12011719
2023-02-04T01:29:32.462Z,73.32763672
2023-02-04T01:30:33.317Z,73.53515625
2023-02-04T01:31:33.600Z,73.63891602
2023-02-04T01:32:34.886Z,73.84033203
2023-02-04T01:33:35.423Z,73.9440918
2023-02-04T01:34:35.982Z,74.04785156
2023-02-04T01:35:37.333Z,74.29199219
2023-02-04T01:36:37.843Z,74.35913086
2023-02-04T01:37:38.442Z,74.25537109
2023-02-04T01:38:39.007Z,74.15161133
2023-02-04T01:39:39.583Z,74.15161133
2023-02-04T01:40:40.132Z,74.25537109
2023-02-04T01:41:41.585Z,74.25537109
2023-02-04T01:42:42.153Z,74.25537109
2023-02-04T01:43:43.388Z,74.01733398
2023-02-04T01:44:43.910Z,73.91357422
2023-02-04T01:45:44.484Z,73.80981445
2023-02-04T01:46:45.070Z,73.60229492
2023-02-04T01:47:45.662Z,73.49853516
2023-02-04T01:48:46.242Z,73.29101563
2023-02-04T01:49:46.761Z,73.05297852
2023-02-04T01:50:47.341Z,72.74169922
2023-02-04T01:51:47.875Z,72.63793945
2023-02-04T01:52:49.394Z,72.53417969
2023-02-04T01:53:49.883Z,72.53417969
2023-02-04T01:54:50.402Z,72.43041992
2023-02-04T01:55:50.905Z,72.43041992
2023-02-04T01:56:51.467Z,72.32666016
2023-02-04T01:57:51.951Z,72.32666016
2023-02-04T01:58:52.488Z,72.22290039
2023-02-04T01:59:53.046Z,72.11914063
2023-02-04T02:00:53.594Z,72.01538086
2023-02-04T02:01:54.270Z,72.22290039
2023-02-04T02:02:54.735Z,72.43041992
2023-02-04T02:03:56.068Z,72.63793945
2023-02-04T02:04:56.579Z,72.53417969
2023-02-04T02:05:57.258Z,72.43041992
2023-02-04T02:06:57.818Z,72.22290039
2023-02-04T02:07:58.352Z,72.11914063
2023-02-04T02:08:58.882Z,72.01538086
2023-02-04T02:09:59.380Z,72.01538086
2023-02-04T02:11:00.052Z,71.81396484
2023-02-04T02:12:31.995Z,71.81396484
2023-02-04T02:13:33.114Z,71.67358398
2023-02-04T02:14:33.648Z,71.67358398
2023-02-04T02:15:34.216Z,71.67358398
2023-02-04T02:16:34.816Z,71.67358398
2023-02-04T02:17:35.262Z,71.67358398
2023-02-04T02:18:35.782Z,71.77734375
2023-02-04T02:19:36.334Z,71.67358398
2023-02-04T02:20:36.882Z,71.88110352
2023-02-04T02:21:37.409Z,71.98486328
2023-02-04T02:22:39.087Z,71.98486328
2023-02-04T02:23:39.705Z,71.88110352
2023-02-04T02:24:40.289Z,71.77734375
2023-02-04T02:25:40.893Z,71.88110352
2023-02-04T02:26:41.357Z,71.88110352
2023-02-04T02:27:41.949Z,71.67358398
2023-02-04T02:28:42.424Z,71.67358398
2023-02-04T02:29:43.005Z,71.67358398
2023-02-04T02:30:43.613Z,71.77734375
2023-02-04T02:31:44.247Z,71.77734375
2023-02-04T02:32:45.599Z,71.67358398
2023-02-04T02:33:46.208Z,71.56982422
2023-02-04T02:34:46.732Z,71.67358398
2023-02-04T02:35:47.316Z,71.77734375
2023-02-04T02:36:47.854Z,71.98486328
2023-02-04T02:37:48.401Z,72.08862305
2023-02-04T02:38:48.948Z,72.08862305
2023-02-04T02:39:49.485Z,72.19238281
2023-02-04T02:40:50.109Z,72.19238281
2023-02-04T02:41:51.588Z,72.08862305
2023-02-04T02:42:52.093Z,72.08862305
2023-02-04T02:43:53.679Z,72.08862305
2023-02-04T02:44:54.231Z,72.19238281
2023-02-04T02:45:54.833Z,72.19238281
2023-02-04T02:46:55.313Z,72.19238281
2023-02-04T02:47:55.924Z,71.98486328
2023-02-04T02:48:56.481Z,71.88110352
2023-02-04T02:49:57.010Z,71.88110352
2023-02-04T02:50:57.624Z,71.77734375
2023-02-04T02:51:58.156Z,71.77734375
2023-02-04T02:52:59.565Z,71.67358398
2023-02-04T02:54:00.176Z,71.56982422
2023-02-04T02:55:31.425Z,71.53930664
2023-02-04T02:56:32.051Z,71.53930664
2023-02-04T02:57:32.599Z,71.53930664
2023-02-04T02:58:33.110Z,71.53930664
2023-02-04T02:59:33.655Z,71.56982422
2023-02-04T03:00:34.414Z,71.67358398
2023-02-04T03:01:35.440Z,71.77734375
2023-02-04T03:02:35.929Z,71.88110352
2023-02-04T03:03:37.336Z,71.88110352
2023-02-04T03:04:37.891Z,71.88110352
2023-02-04T03:05:38.431Z,71.88110352
2023-02-04T03:06:38.968Z,71.98486328
2023-02-04T03:07:39.526Z,72.19238281
2023-02-04T03:08:40.067Z,72.29614258
2023-02-04T03:09:40.833Z,72.19238281
2023-02-04T03:10:41.370Z,72.19238281
2023-02-04T03:11:41.913Z,72.19238281
2023-02-04T03:12:43.102Z,72.19238281
2023-02-04T03:13:43.661Z,72.39990234
2023-02-04T03:14:44.827Z,72.50366211
2023-02-04T03:15:45.432Z,72.50366211
2023-02-04T03:16:45.922Z,72.50366211
2023-02-04T03:17:46.479Z,72.50366211
2023-02-04T03:18:47.016Z,72.74169922
2023-02-04T03:19:47.516Z,72.84545898
2023-02-04T03:20:48.044Z,72.84545898
2023-02-04T03:21:48.617Z,72.94921875
2023-02-04T03:22:50.106Z,73.05297852
2023-02-04T03:23:50.774Z,73.05297852
2023-02-04T03:24:51.259Z,73.15673828
2023-02-04T03:25:51.877Z,73.15673828
2023-02-04T03:26:52.447Z,73.15673828
2023-02-04T03:27:53.052Z,73.15673828
2023-02-04T03:28:53.539Z,73.26049805
2023-02-04T03:29:54.171Z,73.26049805
2023-02-04T03:30:54.800Z,73.15673828
2023-02-04T03:31:55.362Z,73.05297852
2023-02-04T03:32:56.661Z,72.94921875
2023-02-04T03:33:57.225Z,72.94921875
2023-02-04T03:34:57.741Z,72.94921875
2023-02-04T03:35:58.354Z,72.94921875
2023-02-04T03:36:58.871Z,73.05297852
2023-02-04T03:37:59.398Z,73.05297852
2023-02-04T03:38:59.909Z,73.05297852
2023-02-04T03:40:31.153Z,72.94921875
2023-02-04T03:41:31.454Z,72.84545898
2023-02-04T03:42:32.911Z,72.84545898
2023-02-04T03:43:34.333Z,72.71118164
2023-02-04T03:44:34.903Z,72.71118164
2023-02-04T03:45:45.068Z,72.80883789
2023-02-04T03:46:36.040Z,72.71118164
2023-02-04T03:47:36.614Z,72.71118164
2023-02-04T03:48:37.118Z,72.60742188
2023-02-04T03:49:37.715Z,72.60742188
2023-02-04T03:50:38.255Z,72.60742188
2023-02-04T03:51:38.802Z,72.50366211
2023-02-04T03:52:39.351Z,72.50366211
2023-02-04T03:53:40.645Z,72.50366211
2023-02-04T03:54:41.139Z,72.39990234
2023-02-04T03:55:41.711Z,72.50366211
2023-02-04T03:56:42.251Z,72.60742188
2023-02-04T03:57:42.773Z,72.71118164
2023-02-04T03:58:43.308Z,72.80883789
2023-02-04T03:59:43.876Z,72.80883789
2023-02-04T04:00:44.394Z,72.94921875
2023-02-04T04:01:44.974Z,72.94921875
2023-02-04T04:02:45.607Z,73.01635742
2023-02-04T04:03:46.831Z,73.05297852
2023-02-04T04:04:47.368Z,73.05297852
2023-02-04T04:05:47.878Z,73.15673828
2023-02-04T04:06:48.397Z,73.26049805
2023-02-04T04:07:48.977Z,73.22387695
2023-02-04T04:08:49.502Z,73.22387695
2023-02-04T04:09:49.999Z,73.12011719
2023-02-04T04:10:50.532Z,73.01635742
2023-02-04T04:11:51.072Z,73.01635742
2023-02-04T04:12:52.361Z,73.01635742
2023-02-04T04:13:53.379Z,73.01635742
2023-02-04T04:14:53.937Z,73.01635742
2023-02-04T04:15:54.559Z,73.01635742
2023-02-04T04:16:55.113Z,73.01635742
2023-02-04T04:17:55.623Z,72.91259766
2023-02-04T04:18:56.180Z,72.91259766
2023-02-04T04:19:56.730Z,72.91259766
2023-02-04T04:20:57.232Z,72.80883789
2023-02-04T04:21:57.772Z,72.80883789
2023-02-04T04:22:58.305Z,72.80883789
2023-02-04T04:23:59.424Z,72.71118164
2023-02-04T04:25:30.322Z,72.71118164
2023-02-04T04:26:30.874Z,72.71118164
2023-02-04T04:27:31.373Z,72.60742188
2023-02-04T04:28:31.940Z,72.50366211
2023-02-04T04:29:32.499Z,72.25952148
2023-02-04T04:30:33.678Z,72.15576172
2023-02-04T04:31:33.854Z,72.05810547
2023-02-04T04:32:34.303Z,72.15576172
2023-02-04T04:33:35.625Z,72.25952148
2023-02-04T04:34:36.131Z,72.29614258
2023-02-04T04:35:36.628Z,72.39990234
2023-02-04T04:36:37.159Z,72.25952148
2023-02-04T04:37:37.843Z,72.25952148
2023-02-04T04:38:38.522Z,72.39990234
2023-02-04T04:39:39.072Z,72.39990234
2023-02-04T04:40:39.687Z,72.50366211
2023-02-04T04:41:40.212Z,72.60742188
2023-02-04T04:42:41.613Z,72.60742188
2023-02-04T04:43:43.261Z,72.71118164
2023-02-04T04:44:43.877Z,72.91259766
2023-02-04T04:45:44.461Z,73.01635742
2023-02-04T04:46:45.000Z,73.12011719
2023-02-04T04:47:45.630Z,73.22387695
2023-02-04T04:48:46.355Z,73.22387695
2023-02-04T04:49:47.023Z,73.22387695
2023-02-04T04:50:47.594Z,73.12011719
2023-02-04T04:51:48.121Z,73.01635742
2023-02-04T04:52:48.683Z,72.91259766
2023-02-04T04:53:50.182Z,72.91259766
2023-02-04T04:54:50.850Z,73.01635742
2023-02-04T04:55:51.511Z,73.12011719
2023-02-04T04:56:52.017Z,73.12011719
2023-02-04T04:57:52.588Z,73.22387695
2023-02-04T04:58:53.399Z,73.32763672
2023-02-04T04:59:54.222Z,73.43139648
2023-02-04T05:00:54.945Z,73.43139648
2023-02-04T05:01:55.485Z,73.32763672
2023-02-04T05:02:56.008Z,73.43139648
2023-02-04T05:03:57.349Z,73.43139648
2023-02-04T05:04:58.088Z,73.53515625
2023-02-04T05:05:58.788Z,73.63891602
2023-02-04T05:07:29.927Z,73.63891602
2023-02-04T05:08:30.516Z,73.63891602
2023-02-04T05:09:31.163Z,73.63891602
2023-02-04T05:10:32.225Z,73.63891602
2023-02-04T05:11:32.860Z,73.63891602
2023-02-04T05:12:34.091Z,73.53515625
2023-02-04T05:13:35.570Z,73.53515625
2023-02-04T05:14:36.137Z,73.53515625
2023-02-04T05:15:36.926Z,73.53515625
2023-02-04T05:16:37.677Z,73.43139648
2023-02-04T05:17:38.300Z,73.39477539
2023-02-04T05:18:38.820Z,73.29101563
2023-02-04T05:19:39.407Z,73.29101563
2023-02-04T05:20:39.939Z,73.19335938
2023-02-04T05:21:41.045Z,73.19335938
2023-02-04T05:22:41.701Z,73.08959961
2023-02-04T05:23:43.121Z,73.08959961
2023-02-04T05:24:43.677Z,73.08959961
2023-02-04T05:25:44.255Z,72.98583984
2023-02-04T05:26:45.462Z,72.98583984
2023-02-04T05:27:46.276Z,73.08959961
2023-02-04T05:28:46.988Z,73.08959961
2023-02-04T05:29:47.554Z,73.19335938
2023-02-04T05:30:48.130Z,73.19335938
2023-02-04T05:31:48.874Z,73.19335938
2023-02-04T05:32:49.579Z,73.08959961
2023-02-04T05:33:51.153Z,73.19335938
2023-02-04T05:34:51.782Z,73.19335938
2023-02-04T05:35:52.267Z,73.19335938
2023-02-04T05:36:52.837Z,73.19335938
2023-02-04T05:37:53.643Z,73.19335938
2023-02-04T05:38:54.298Z,73.19335938
2023-02-04T05:39:55.014Z,73.08959961
2023-02-04T05:40:55.535Z,72.98583984
2023-02-04T05:41:56.121Z,72.98583984
2023-02-04T05:42:56.605Z,73.08959961
2023-02-04T05:43:58.202Z,72.98583984
2023-02-04T05:45:29.649Z,72.88208008
2023-02-04T05:46:30.071Z,72.88208008
2023-02-04T05:47:30.621Z,72.88208008
2023-02-04T05:48:31.149Z,72.77832031
2023-02-04T05:49:31.870Z,72.77832031
2023-02-04T05:50:32.950Z,72.77832031
2023-02-04T05:51:33.217Z,72.67456055
2023-02-04T05:52:33.750Z,72.77832031
2023-02-04T05:53:34.287Z,72.88208008
2023-02-04T05:54:35.506Z,72.88208008
2023-02-04T05:55:36.148Z,72.88208008
2023-02-04T05:56:36.923Z,72.77832031
2023-02-04T05:57:37.407Z,72.74169922
2023-02-04T05:58:39.905Z,72.64404297
2023-02-04T05:59:38.616Z,72.5402832
2023-02-04T06:00:39.312Z,72.67456055
2023-02-04T06:01:40.009Z,72.77832031
2023-02-04T06:02:40.863Z,72.98583984
2023-02-04T06:03:42.094Z,73.08959961
2023-02-04T06:04:44.761Z,73.19335938
2023-02-04T06:05:44.000Z,73.29101563
2023-02-04T06:06:44.776Z,73.39477539
2023-02-04T06:07:45.465Z,73.29101563
2023-02-04T06:08:46.060Z,73.22387695
2023-02-04T06:09:46.628Z,73.22387695
2023-02-04T06:10:47.285Z,73.43139648
2023-02-04T06:11:48.047Z,73.53515625
2023-02-04T06:12:49.622Z,73.63891602
2023-02-04T06:13:50.288Z,73.63891602
2023-02-04T06:14:50.868Z,73.63891602
2023-02-04T06:15:52.089Z,73.74267578
2023-02-04T06:16:52.884Z,73.74267578
2023-02-04T06:17:53.600Z,73.74267578
2023-02-04T06:18:54.348Z,73.74267578
2023-02-04T06:19:54.902Z,73.74267578
2023-02-04T06:20:55.416Z,73.95019531
2023-02-04T06:21:56.173Z,73.95019531
2023-02-04T06:22:56.867Z,73.95019531
2023-02-04T06:23:58.713Z,74.04785156
2023-02-04T06:25:29.604Z,73.95019531
2023-02-04T06:26:30.137Z,73.84643555
2023-02-04T06:27:30.819Z,73.84643555
2023-02-04T06:28:31.485Z,73.84643555
2023-02-04T06:29:32.272Z,73.74267578
2023-02-04T06:30:33.381Z,73.74267578
2023-02-04T06:31:33.645Z,73.95019531
2023-02-04T06:32:34.071Z,73.95019531
2023-02-04T06:33:34.708Z,73.95019531
2023-02-04T06:34:35.965Z,73.95019531
2023-02-04T06:35:36.636Z,73.95019531
2023-02-04T06:36:37.177Z,73.95019531
2023-02-04T06:37:37.846Z,73.84643555
2023-02-04T06:38:38.337Z,73.74267578
2023-02-04T06:39:39.415Z,73.74267578
2023-02-04T06:40:40.210Z,73.70605469
2023-02-04T06:41:40.834Z,73.70605469
2023-02-04T06:42:41.433Z,73.49853516
2023-02-04T06:43:42.855Z,73.29101563
2023-02-04T06:44:44.557Z,73.19335938
2023-02-04T06:45:45.347Z,73.19335938
2023-02-04T06:46:46.087Z,73.19335938
2023-02-04T06:47:46.692Z,73.29101563
2023-02-04T06:48:47.204Z,73.29101563
2023-02-04T06:49:47.828Z,73.29101563
2023-02-04T06:50:48.616Z,73.19335938
2023-02-04T06:51:49.314Z,73.08959961
2023-02-04T06:52:50.012Z,73.08959961
2023-02-04T06:53:50.543Z,73.08959961
2023-02-04T06:54:51.868Z,73.08959961
2023-02-04T06:55:52.590Z,72.98583984
2023-02-04T06:56:53.492Z,72.98583984
2023-02-04T06:57:54.304Z,72.84545898
2023-02-04T06:58:54.863Z,72.74169922
2023-02-04T06:59:55.410Z,72.74169922
2023-02-04T07:00:56.066Z,72.74169922
2023-02-04T07:01:56.731Z,72.74169922
2023-02-04T07:02:57.581Z,72.84545898
2023-02-04T07:04:29.066Z,72.84545898
2023-02-04T07:05:29.610Z,72.84545898
2023-02-04T07:06:30.322Z,72.74169922
2023-02-04T07:07:31.018Z,72.74169922
2023-02-04T07:08:31.743Z,72.74169922
2023-02-04T07:09:32.410Z,72.74169922
2023-02-04T07:10:33.380Z,72.64404297
2023-02-04T07:11:33.427Z,72.64404297
2023-02-04T07:12:34.097Z,72.74169922
2023-02-04T07:13:35.809Z,72.84545898
2023-02-04T07:14:36.316Z,73.08959961
2023-02-04T07:15:37.409Z,73.19335938
2023-02-04T07:16:37.901Z,73.19335938
2023-02-04T07:17:38.566Z,73.29101563
2023-02-04T07:18:39.281Z,73.29101563
2023-02-04T07:19:39.994Z,73.15673828
2023-02-04T07:20:40.925Z,73.05297852
2023-02-04T07:21:41.504Z,73.05297852
2023-02-04T07:22:42.029Z,73.08959961
2023-02-04T07:23:42.855Z,73.19335938
2023-02-04T07:24:44.165Z,73.29101563
2023-02-04T07:25:44.868Z,73.29101563
2023-02-04T07:26:45.436Z,73.29101563
2023-02-04T07:27:46.097Z,73.19335938
2023-02-04T07:28:46.574Z,74.43237305
2023-02-04T07:29:47.373Z,74.81079102
2023-02-04T07:30:48.230Z,74.29199219
2023-02-04T07:31:48.779Z,73.77319336
2023-02-04T07:32:49.217Z,73.46801758
2023-02-04T07:33:49.950Z,73.46801758
2023-02-04T07:34:50.967Z,73.46801758
2023-02-04T07:35:51.723Z,73.46801758
2023-02-04T07:36:52.575Z,73.46801758
2023-02-04T07:37:53.114Z,73.36425781
2023-02-04T07:38:53.760Z,73.36425781
2023-02-04T07:39:54.316Z,73.36425781
2023-02-04T07:40:55.033Z,73.36425781
2023-02-04T07:41:55.788Z,73.36425781
2023-02-04T07:42:56.419Z,73.26049805
2023-02-04T07:44:29.188Z,73.26049805
2023-02-04T07:45:29.795Z,73.26049805
2023-02-04T07:46:30.450Z,73.26049805
2023-02-04T07:47:31.125Z,73.36425781
2023-02-04T07:48:31.796Z,73.36425781
2023-02-04T07:49:32.433Z,73.36425781
2023-02-04T07:50:33.257Z,73.46801758
2023-02-04T07:51:33.671Z,73.57177734
2023-02-04T07:52:34.422Z,73.46801758
2023-02-04T07:53:35.164Z,73.26049805
2023-02-04T07:54:35.706Z,73.26049805
2023-02-04T07:55:36.813Z,73.26049805
2023-02-04T07:56:37.474Z,73.36425781
2023-02-04T07:57:38.197Z,73.46801758
2023-02-04T07:58:38.884Z,73.77319336
2023-02-04T07:59:39.589Z,76.5625
2023-02-04T08:00:39.913Z,75.73852539
2023-02-04T08:01:40.730Z,74.49951172
2023-02-04T08:02:41.493Z,74.08447266
2023-02-04T08:03:42.211Z,73.98071289
2023-02-04T08:04:43.676Z,73.87695313
2023-02-04T08:05:44.231Z,73.87695313
2023-02-04T08:06:44.750Z,73.98071289
2023-02-04T08:07:45.379Z,73.98071289
2023-02-04T08:08:46.042Z,74.08447266
2023-02-04T08:09:46.711Z,74.18823242
2023-02-04T08:10:47.285Z,74.18823242
2023-02-04T08:11:47.798Z,73.98071289
2023-02-04T08:12:48.337Z,73.87695313
2023-02-04T08:13:49.055Z,73.74267578
2023-02-04T08:14:50.781Z,73.74267578
2023-02-04T08:15:51.450Z,73.74267578
2023-02-04T08:16:51.930Z,73.53515625
2023-02-04T08:17:52.461Z,73.32763672
2023-02-04T08:18:53.233Z,73.63891602
2023-02-04T08:19:53.990Z,73.84643555
2023-02-04T08:20:54.721Z,74.05395508
2023-02-04T08:21:55.416Z,74.25537109
2023-02-04T08:22:55.943Z,74.46289063
2023-02-04T08:23:56.482Z,73.53515625
2023-02-04T08:25:28.568Z,73.32763672
2023-02-04T08:26:29.261Z,73.12011719
2023-02-04T08:27:29.894Z,73.32763672
2023-02-04T08:28:30.396Z,73.22387695
2023-02-04T08:29:30.974Z,73.02246094
2023-02-04T08:30:33.059Z,73.22387695
2023-02-04T08:31:33.491Z,73.32763672
2023-02-04T08:32:34.093Z,73.53515625
2023-02-04T08:33:34.660Z,73.84643555
2023-02-04T08:34:35.436Z,73.74267578
2023-02-04T08:35:36.973Z,73.53515625
2023-02-04T08:36:37.609Z,73.63891602
2023-02-04T08:37:38.301Z,73.53515625
2023-02-04T08:38:38.810Z,73.63891602
2023-02-04T08:39:39.339Z,73.74267578
2023-02-04T08:40:40.013Z,73.67553711
2023-02-04T08:41:40.594Z,73.77319336
2023-02-04T08:42:41.327Z,73.77319336
2023-02-04T08:43:42.558Z,73.77319336
2023-02-04T08:44:43.099Z,73.87695313
2023-02-04T08:45:44.377Z,73.74267578
2023-02-04T08:46:45.210Z,73.63891602
2023-02-04T08:47:45.885Z,73.53515625
2023-02-04T08:48:46.521Z,73.43139648
2023-02-04T08:49:47.018Z,74.77416992
2023-02-04T08:50:47.586Z,75.28686523
2023-02-04T08:51:48.310Z,74.77416992
2023-02-04T08:52:49.068Z,74.35913086
2023-02-04T08:53:49.863Z,73.95019531
2023-02-04T08:54:51.080Z,73.63891602
2023-02-04T08:55:51.691Z,73.63891602
2023-02-04T08:56:52.388Z,73.53515625
2023-02-04T08:57:53.071Z,73.53515625
2023-02-04T08:58:53.844Z,73.32763672
2023-02-04T08:59:54.484Z,73.32763672
2023-02-04T09:00:55.115Z,73.43139648
2023-02-04T09:01:55.630Z,73.22387695
2023-02-04T09:02:56.822Z,73.32763672
2023-02-04T09:04:28.025Z,73.53515625
2023-02-04T09:05:29.370Z,73.53515625
2023-02-04T09:06:29.954Z,73.40087891
2023-02-04T09:07:30.636Z,73.29711914
2023-02-04T09:08:31.411Z,73.40087891
2023-02-04T09:09:32.133Z,73.40087891
2023-02-04T09:10:33.103Z,73.50463867
2023-02-04T09:11:33.400Z,73.40087891
2023-02-04T09:12:34.032Z,73.19335938
2023-02-04T09:13:34.643Z,73.08959961
2023-02-04T09:14:36.029Z,73.08959961
2023-02-04T09:15:37.725Z,72.98583984
2023-02-04T09:16:38.315Z,72.88208008
2023-02-04T09:17:38.763Z,72.98583984
2023-02-04T09:18:39.536Z,72.98583984
2023-02-04T09:19:40.231Z,72.88208008
2023-02-04T09:20:41.040Z,72.98583984
2023-02-04T09:21:42.396Z,72.98583984
2023-02-04T09:22:42.906Z,72.98583984
2023-02-04T09:23:43.467Z,72.98583984
2023-02-04T09:24:44.234Z,73.08959961
2023-02-04T09:25:45.620Z,73.19335938
2023-02-04T09:26:46.307Z,73.29711914
2023-02-04T09:27:46.843Z,73.29711914
2023-02-04T09:28:47.380Z,72.98583984
2023-02-04T09:29:48.285Z,72.98583984
2023-02-04T09:30:49.310Z,72.95532227
2023-02-04T09:31:49.941Z,72.98583984
2023-02-04T09:32:50.506Z,73.08959961
2023-02-04T09:33:51.020Z,73.19335938
2023-02-04T09:34:51.705Z,73.15673828
2023-02-04T09:35:53.044Z,73.08959961
2023-02-04T09:36:53.777Z,73.08959961
2023-02-04T09:37:54.464Z,73.19335938
2023-02-04T09:38:55.039Z,73.19335938
2023-02-04T09:39:55.554Z,73.19335938
2023-02-04T09:41:27.067Z,73.29711914
2023-02-04T09:42:27.923Z,73.19335938
2023-02-04T09:43:28.459Z,73.15673828
2023-02-04T09:44:28.995Z,73.08959961
2023-02-04T09:45:30.215Z,73.05297852
2023-02-04T09:46:30.894Z,73.15673828
2023-02-04T09:47:31.686Z,73.29711914
2023-02-04T09:48:32.231Z,73.40087891
2023-02-04T09:49:32.756Z,73.29711914
2023-02-04T09:50:33.944Z,73.40087891
2023-02-04T09:51:33.975Z,73.40087891
2023-02-04T09:52:34.716Z,73.36425781
2023-02-04T09:53:35.374Z,73.50463867
2023-02-04T09:54:35.981Z,73.46801758
2023-02-04T09:55:37.104Z,73.36425781
2023-02-04T09:56:37.700Z,73.36425781
2023-02-04T09:57:38.411Z,73.26049805
2023-02-04T09:58:39.076Z,73.26049805
2023-02-04T09:59:39.688Z,73.26049805
2023-02-04T10:00:40.313Z,73.26049805
2023-02-04T10:01:40.825Z,73.36425781
2023-02-04T10:02:41.472Z,73.36425781
2023-02-04T10:03:42.328Z,73.36425781
2023-02-04T10:04:42.943Z,73.05297852
2023-02-04T10:05:44.329Z,72.74780273
2023-02-04T10:06:44.826Z,72.43652344
2023-02-04T10:07:45.336Z,72.33276367
2023-02-04T10:08:46.066Z,72.33276367
2023-02-04T10:09:46.826Z,72.22900391
2023-02-04T10:10:47.415Z,72.33276367
2023-02-04T10:11:48.003Z,72.33276367
2023-02-04T10:12:48.598Z,72.22900391
2023-02-04T10:13:50.198Z,72.22900391
2023-02-04T10:14:50.949Z,72.22900391
2023-02-04T10:15:52.449Z,72.22900391
2023-02-04T10:16:53.106Z,72.22900391
2023-02-04T10:17:53.576Z,72.22900391
2023-02-04T10:18:54.298Z,72.22900391
2023-02-04T10:19:54.974Z,72.22900391
2023-02-04T10:21:26.430Z,72.33276367
2023-02-04T10:22:26.928Z,72.43652344
2023-02-04T10:23:27.441Z,72.19848633
2023-02-04T10:24:28.311Z,71.88720703
2023-02-04T10:25:29.643Z,71.78344727
2023-02-04T10:26:30.353Z,71.68579102
2023-02-04T10:27:30.901Z,71.68579102
2023-02-04T10:28:31.369Z,71.47827148
2023-02-04T10:29:31.890Z,71.58203125
2023-02-04T10:30:32.931Z,71.58203125
2023-02-04T10:31:33.513Z,71.58203125
2023-02-04T10:32:33.868Z,71.68579102
2023-02-04T10:33:34.378Z,71.68579102
2023-02-04T10:34:34.955Z,71.78344727
2023-02-04T10:35:36.659Z,71.78344727
2023-02-04T10:36:37.414Z,71.58203125
2023-02-04T10:37:38.072Z,71.58203125
2023-02-04T10:38:38.625Z,71.47827148
2023-02-04T10:39:39.151Z,71.54541016
2023-02-04T10:40:39.832Z,71.54541016
2023-02-04T10:41:40.862Z,71.54541016
2023-02-04T10:42:41.552Z,71.54541016
2023-02-04T10:43:42.205Z,71.44165039
2023-02-04T10:44:43.313Z,71.44165039
2023-02-04T10:45:44.608Z,71.44165039
2023-02-04T10:46:45.332Z,71.33789063
2023-02-04T10:47:46.004Z,71.33789063
2023-02-04T10:48:46.662Z,71.24023438
2023-02-04T10:49:47.272Z,71.24023438
2023-02-04T10:50:47.771Z,71.24023438
2023-02-04T10:51:48.532Z,71.33789063
2023-02-04T10:52:49.235Z,71.33789063
2023-02-04T10:53:49.972Z,71.24023438
2023-02-04T10:54:50.552Z,71.13647461
2023-02-04T10:55:51.622Z,71.13647461
2023-02-04T10:56:52.153Z,71.24023438
2023-02-04T10:57:52.840Z,72.06420898
2023-02-04T10:58:53.729Z,72.47314453
2023-02-04T10:59:54.413Z,72.47314453
2023-02-04T11:00:55.418Z,72.265625
2023-02-04T11:02:26.364Z,72.47314453
2023-02-04T11:03:27.118Z,72.5402832
2023-02-04T11:04:27.741Z,71.82006836